Cubero, New Mexico
Current Conditions -  °F | °C
As of 2:15 AM on Monday 29 Dec 2014 (Local Time) from KGNT Reporting Station
Clear Clear  
Wind Chill:   Ceiling: Unl
Heat Index:   Visibility: 10mi
Dew Point:   Wind: 3mph
Humidity: 84%   Direction: 330°NNW
Pressure: 30.04"   Gusts: NA
Location:  35.08°N, 107.52°W
Report Text: KGNT 290915Z AUTO 33003KT 10SM CLR M15/M17 A3004 RMK AO2 T11501171
Loading
Personal Weather Stations






























Interactive Weather Map New forecast layout! Learn more

10-Day Weather Forecast

Advertisements
Track Severe Weather on mobile